sensor_id;sensor_type;location;lat;lon;timestamp;P1;durP1;ratioP1;P2;durP2;ratioP2
21140;SDS011;10728;53.284;10.314;2022-12-24T10:30:21;26.77;;;13.70;;
21140;SDS011;10728;53.284;10.314;2022-12-24T10:32:48;12.77;;;7.70;;
21140;SDS011;10728;53.284;10.314;2022-12-24T10:35:59;6.43;;;4.37;;
21140;SDS011;10728;53.284;10.314;2022-12-24T10:58:35;7.77;;;5.80;;
21140;SDS011;10728;53.284;10.314;2022-12-24T11:01:45;12.77;;;6.77;;
21140;SDS011;10728;53.284;10.314;2022-12-24T11:04:57;12.70;;;7.27;;
21140;SDS011;10728;53.284;10.314;2022-12-24T11:08:20;10.40;;;7.10;;
21140;SDS011;10728;53.284;10.314;2022-12-24T11:11:23;9.63;;;6.47;;
21140;SDS011;10728;53.284;10.314;2022-12-24T11:14:36;9.23;;;5.70;;
21140;SDS011;10728;53.284;10.314;2022-12-24T11:17:02;11.70;;;6.93;;
21140;SDS011;10728;53.284;10.314;2022-12-24T11:20:34;15.63;;;8.43;;
21140;SDS011;10728;53.284;10.314;2022-12-24T11:30:38;11.27;;;7.17;;
21140;SDS011;10728;53.284;10.314;2022-12-24T11:34:31;11.40;;;7.53;;
21140;SDS011;10728;53.284;10.314;2022-12-24T11:37:31;8.63;;;6.50;;
21140;SDS011;10728;53.284;10.314;2022-12-24T12:02:32;12.10;;;6.90;;
21140;SDS011;10728;53.284;10.314;2022-12-24T12:06:02;14.20;;;9.30;;
21140;SDS011;10728;53.284;10.314;2022-12-24T12:08:47;12.93;;;8.10;;
21140;SDS011;10728;53.284;10.314;2022-12-24T12:57:06;31.57;;;7.40;;
21140;SDS011;10728;53.284;10.314;2022-12-24T13:00:08;26.80;;;6.67;;
21140;SDS011;10728;53.284;10.314;2022-12-24T13:08:46;25.77;;;6.10;;
21140;SDS011;10728;53.284;10.314;2022-12-24T13:44:03;32.17;;;6.63;;
21140;SDS011;10728;53.284;10.314;2022-12-24T13:49:50;35.10;;;9.10;;
21140;SDS011;10728;53.284;10.314;2022-12-24T13:52:52;25.47;;;7.97;;
21140;SDS011;10728;53.284;10.314;2022-12-24T14:01:53;39.13;;;16.97;;
21140;SDS011;10728;53.284;10.314;2022-12-24T14:08:44;32.17;;;14.23;;
21140;SDS011;10728;53.284;10.314;2022-12-24T14:11:17;35.73;;;14.93;;
21140;SDS011;10728;53.284;10.314;2022-12-24T14:20:04;33.63;;;14.63;;
21140;SDS011;10728;53.284;10.314;2022-12-24T14:32:49;19.27;;;9.00;;
21140;SDS011;10728;53.284;10.314;2022-12-24T14:35:19;19.10;;;8.37;;
21140;SDS011;10728;53.284;10.314;2022-12-24T14:38:14;29.70;;;8.93;;
21140;SDS011;10728;53.284;10.314;2022-12-24T14:47:11;18.57;;;6.57;;
21140;SDS011;10728;53.284;10.314;2022-12-24T14:50:24;14.83;;;6.00;;
21140;SDS011;10728;53.284;10.314;2022-12-24T14:53:15;21.50;;;7.23;;
21140;SDS011;10728;53.284;10.314;2022-12-24T14:56:17;16.63;;;7.03;;
21140;SDS011;10728;53.284;10.314;2022-12-24T14:59:12;19.07;;;8.27;;
21140;SDS011;10728;53.284;10.314;2022-12-24T15:01:50;13.90;;;6.93;;
21140;SDS011;10728;53.284;10.314;2022-12-24T15:04:16;27.47;;;10.73;;
21140;SDS011;10728;53.284;10.314;2022-12-24T15:07:04;32.93;;;14.13;;
21140;SDS011;10728;53.284;10.314;2022-12-24T15:09:32;29.13;;;12.20;;
21140;SDS011;10728;53.284;10.314;2022-12-24T15:11:59;29.90;;;11.70;;
21140;SDS011;10728;53.284;10.314;2022-12-24T15:14:56;20.83;;;9.37;;
21140;SDS011;10728;53.284;10.314;2022-12-24T15:17:22;23.10;;;10.33;;
21140;SDS011;10728;53.284;10.314;2022-12-24T15:19:48;17.60;;;9.27;;
21140;SDS011;10728;53.284;10.314;2022-12-24T15:22:58;23.57;;;8.90;;
21140;SDS011;10728;53.284;10.314;2022-12-24T15:39:35;22.50;;;8.17;;
21140;SDS011;10728;53.284;10.314;2022-12-24T15:42:32;30.73;;;9.50;;
21140;SDS011;10728;53.284;10.314;2022-12-24T15:46:03;33.73;;;8.50;;
21140;SDS011;10728;53.284;10.314;2022-12-24T15:48:29;37.17;;;8.33;;
21140;SDS011;10728;53.284;10.314;2022-12-24T16:07:59;24.40;;;7.20;;
21140;SDS011;10728;53.284;10.314;2022-12-24T16:23:32;20.27;;;7.83;;
21140;SDS011;10728;53.284;10.314;2022-12-24T16:25:58;22.20;;;8.00;;
21140;SDS011;10728;53.284;10.314;2022-12-24T16:28:24;32.37;;;9.67;;
21140;SDS011;10728;53.284;10.314;2022-12-24T16:30:50;30.70;;;10.97;;
21140;SDS011;10728;53.284;10.314;2022-12-24T16:33:39;35.40;;;11.63;;
21140;SDS011;10728;53.284;10.314;2022-12-24T16:36:26;35.90;;;9.77;;
21140;SDS011;10728;53.284;10.314;2022-12-24T16:38:59;24.57;;;9.47;;
21140;SDS011;10728;53.284;10.314;2022-12-24T16:41:43;34.87;;;9.00;;
21140;SDS011;10728;53.284;10.314;2022-12-24T16:44:27;33.03;;;8.87;;
21140;SDS011;10728;53.284;10.314;2022-12-24T16:46:54;35.80;;;10.07;;
21140;SDS011;10728;53.284;10.314;2022-12-24T16:50:14;29.23;;;8.27;;
21140;SDS011;10728;53.284;10.314;2022-12-24T16:52:40;23.83;;;8.57;;
21140;SDS011;10728;53.284;10.314;2022-12-24T16:55:06;44.33;;;8.63;;
21140;SDS011;10728;53.284;10.314;2022-12-24T16:57:32;22.53;;;7.60;;
21140;SDS011;10728;53.284;10.314;2022-12-24T16:59:58;30.30;;;7.07;;
21140;SDS011;10728;53.284;10.314;2022-12-24T17:02:23;24.37;;;7.13;;
21140;SDS011;10728;53.284;10.314;2022-12-24T17:05:03;27.73;;;7.10;;
21140;SDS011;10728;53.284;10.314;2022-12-24T17:07:31;31.17;;;7.67;;
21140;SDS011;10728;53.284;10.314;2022-12-24T17:09:57;41.33;;;7.87;;
21140;SDS011;10728;53.284;10.314;2022-12-24T17:12:22;32.53;;;7.60;;
21140;SDS011;10728;53.284;10.314;2022-12-24T17:14:48;33.87;;;6.57;;
21140;SDS011;10728;53.284;10.314;2022-12-24T17:17:18;19.93;;;5.60;;
21140;SDS011;10728;53.284;10.314;2022-12-24T17:19:59;29.77;;;6.10;;
21140;SDS011;10728;53.284;10.314;2022-12-24T17:22:24;19.30;;;5.83;;
21140;SDS011;10728;53.284;10.314;2022-12-24T17:24:58;35.37;;;6.57;;
21140;SDS011;10728;53.284;10.314;2022-12-24T17:27:34;22.77;;;5.83;;
21140;SDS011;10728;53.284;10.314;2022-12-24T17:30:17;25.90;;;5.50;;
21140;SDS011;10728;53.284;10.314;2022-12-24T17:32:46;29.73;;;5.97;;
21140;SDS011;10728;53.284;10.314;2022-12-24T17:35:11;25.93;;;5.00;;
21140;SDS011;10728;53.284;10.314;2022-12-24T17:37:45;30.63;;;5.13;;
21140;SDS011;10728;53.284;10.314;2022-12-24T17:40:11;25.43;;;4.43;;
21140;SDS011;10728;53.284;10.314;2022-12-24T17:42:36;24.60;;;4.77;;
21140;SDS011;10728;53.284;10.314;2022-12-24T17:45:02;25.37;;;4.30;;
21140;SDS011;10728;53.284;10.314;2022-12-24T17:47:28;23.57;;;4.47;;
21140;SDS011;10728;53.284;10.314;2022-12-24T17:50:13;29.90;;;5.13;;
21140;SDS011;10728;53.284;10.314;2022-12-24T17:52:39;25.03;;;4.60;;
21140;SDS011;10728;53.284;10.314;2022-12-24T17:55:04;32.60;;;4.53;;
21140;SDS011;10728;53.284;10.314;2022-12-24T17:57:30;27.03;;;5.07;;
21140;SDS011;10728;53.284;10.314;2022-12-24T17:59:56;42.13;;;10.87;;
21140;SDS011;10728;53.284;10.314;2022-12-24T18:02:21;35.03;;;6.83;;
21140;SDS011;10728;53.284;10.314;2022-12-24T18:04:48;20.07;;;4.47;;
21140;SDS011;10728;53.284;10.314;2022-12-24T18:07:17;24.57;;;4.80;;
21140;SDS011;10728;53.284;10.314;2022-12-24T18:09:42;19.77;;;3.80;;
21140;SDS011;10728;53.284;10.314;2022-12-24T18:12:09;28.03;;;4.90;;
21140;SDS011;10728;53.284;10.314;2022-12-24T18:14:34;16.07;;;3.90;;
21140;SDS011;10728;53.284;10.314;2022-12-24T18:17:00;22.33;;;4.30;;
21140;SDS011;10728;53.284;10.314;2022-12-24T18:19:26;24.27;;;4.80;;
21140;SDS011;10728;53.284;10.314;2022-12-24T18:21:51;25.53;;;4.53;;
21140;SDS011;10728;53.284;10.314;2022-12-24T18:24:17;25.00;;;4.23;;
21140;SDS011;10728;53.284;10.314;2022-12-24T18:26:42;27.90;;;4.60;;
21140;SDS011;10728;53.284;10.314;2022-12-24T18:29:09;18.73;;;3.80;;
21140;SDS011;10728;53.284;10.314;2022-12-24T18:31:35;16.83;;;3.87;;
21140;SDS011;10728;53.284;10.314;2022-12-24T18:34:01;17.30;;;3.80;;
21140;SDS011;10728;53.284;10.314;2022-12-24T18:36:28;24.53;;;3.97;;
21140;SDS011;10728;53.284;10.314;2022-12-24T18:38:54;28.10;;;4.10;;
21140;SDS011;10728;53.284;10.314;2022-12-24T18:41:21;14.60;;;3.57;;
21140;SDS011;10728;53.284;10.314;2022-12-24T18:43:47;20.80;;;3.80;;
21140;SDS011;10728;53.284;10.314;2022-12-24T18:46:18;16.03;;;3.23;;
21140;SDS011;10728;53.284;10.314;2022-12-24T18:48:45;22.90;;;3.80;;
21140;SDS011;10728;53.284;10.314;2022-12-24T18:51:11;17.47;;;3.53;;
21140;SDS011;10728;53.284;10.314;2022-12-24T18:53:37;19.70;;;3.60;;
21140;SDS011;10728;53.284;10.314;2022-12-24T18:56:10;19.57;;;4.10;;
21140;SDS011;10728;53.284;10.314;2022-12-24T18:58:37;14.47;;;3.47;;
21140;SDS011;10728;53.284;10.314;2022-12-24T19:01:10;17.43;;;3.50;;
21140;SDS011;10728;53.284;10.314;2022-12-24T19:03:38;15.17;;;3.30;;
21140;SDS011;10728;53.284;10.314;2022-12-24T19:06:03;19.37;;;3.67;;
21140;SDS011;10728;53.284;10.314;2022-12-24T19:08:29;22.00;;;3.50;;
21140;SDS011;10728;53.284;10.314;2022-12-24T19:10:55;22.63;;;3.80;;
21140;SDS011;10728;53.284;10.314;2022-12-24T19:13:20;10.57;;;2.90;;
21140;SDS011;10728;53.284;10.314;2022-12-24T19:15:45;19.20;;;3.57;;
21140;SDS011;10728;53.284;10.314;2022-12-24T19:18:11;18.47;;;4.07;;
21140;SDS011;10728;53.284;10.314;2022-12-24T19:20:37;19.57;;;3.87;;
21140;SDS011;10728;53.284;10.314;2022-12-24T19:23:03;18.13;;;3.80;;
21140;SDS011;10728;53.284;10.314;2022-12-24T19:25:29;17.17;;;3.70;;
21140;SDS011;10728;53.284;10.314;2022-12-24T19:27:54;16.57;;;3.47;;
21140;SDS011;10728;53.284;10.314;2022-12-24T19:30:20;22.80;;;3.87;;
21140;SDS011;10728;53.284;10.314;2022-12-24T19:32:45;18.53;;;3.80;;
21140;SDS011;10728;53.284;10.314;2022-12-24T19:35:10;11.07;;;3.23;;
21140;SDS011;10728;53.284;10.314;2022-12-24T19:37:36;25.00;;;3.83;;
21140;SDS011;10728;53.284;10.314;2022-12-24T19:40:04;20.47;;;3.73;;
21140;SDS011;10728;53.284;10.314;2022-12-24T19:42:30;18.10;;;3.50;;
21140;SDS011;10728;53.284;10.314;2022-12-24T19:44:56;23.10;;;3.33;;
21140;SDS011;10728;53.284;10.314;2022-12-24T19:47:21;16.73;;;3.87;;
21140;SDS011;10728;53.284;10.314;2022-12-24T19:49:55;11.57;;;3.17;;
21140;SDS011;10728;53.284;10.314;2022-12-24T19:52:21;23.37;;;3.53;;
21140;SDS011;10728;53.284;10.314;2022-12-24T19:54:46;15.77;;;3.47;;
21140;SDS011;10728;53.284;10.314;2022-12-24T19:57:12;14.83;;;3.47;;
21140;SDS011;10728;53.284;10.314;2022-12-24T19:59:37;18.30;;;3.67;;
21140;SDS011;10728;53.284;10.314;2022-12-24T20:02:03;18.27;;;3.53;;
21140;SDS011;10728;53.284;10.314;2022-12-24T20:04:28;11.07;;;3.40;;
21140;SDS011;10728;53.284;10.314;2022-12-24T20:06:53;18.17;;;4.00;;
21140;SDS011;10728;53.284;10.314;2022-12-24T20:09:19;21.87;;;5.83;;
21140;SDS011;10728;53.284;10.314;2022-12-24T20:11:44;15.03;;;5.20;;
21140;SDS011;10728;53.284;10.314;2022-12-24T20:14:10;15.50;;;4.87;;
21140;SDS011;10728;53.284;10.314;2022-12-24T20:16:36;13.00;;;4.23;;
21140;SDS011;10728;53.284;10.314;2022-12-24T20:19:02;15.03;;;4.90;;
21140;SDS011;10728;53.284;10.314;2022-12-24T20:21:29;19.17;;;4.70;;
21140;SDS011;10728;53.284;10.314;2022-12-24T20:23:55;13.60;;;4.60;;
21140;SDS011;10728;53.284;10.314;2022-12-24T20:26:22;15.63;;;4.90;;
21140;SDS011;10728;53.284;10.314;2022-12-24T20:28:49;23.77;;;4.93;;
21140;SDS011;10728;53.284;10.314;2022-12-24T20:31:22;18.83;;;3.93;;
21140;SDS011;10728;53.284;10.314;2022-12-24T20:33:49;31.80;;;5.40;;
21140;SDS011;10728;53.284;10.314;2022-12-24T20:36:16;16.00;;;4.07;;
21140;SDS011;10728;53.284;10.314;2022-12-24T20:38:42;21.43;;;4.27;;
21140;SDS011;10728;53.284;10.314;2022-12-24T20:41:09;11.40;;;3.70;;
21140;SDS011;10728;53.284;10.314;2022-12-24T20:43:38;14.43;;;3.70;;
21140;SDS011;10728;53.284;10.314;2022-12-24T20:46:05;20.63;;;4.03;;
21140;SDS011;10728;53.284;10.314;2022-12-24T20:48:31;18.63;;;3.87;;
21140;SDS011;10728;53.284;10.314;2022-12-24T20:50:56;27.17;;;4.53;;
21140;SDS011;10728;53.284;10.314;2022-12-24T20:53:22;11.10;;;3.73;;
21140;SDS011;10728;53.284;10.314;2022-12-24T20:55:51;16.80;;;4.13;;
21140;SDS011;10728;53.284;10.314;2022-12-24T20:58:17;17.30;;;4.50;;
21140;SDS011;10728;53.284;10.314;2022-12-24T21:00:45;14.57;;;4.93;;
21140;SDS011;10728;53.284;10.314;2022-12-24T21:03:12;15.93;;;4.10;;
21140;SDS011;10728;53.284;10.314;2022-12-24T21:05:39;25.23;;;5.07;;
21140;SDS011;10728;53.284;10.314;2022-12-24T21:08:05;12.97;;;4.47;;
21140;SDS011;10728;53.284;10.314;2022-12-24T21:10:34;18.57;;;4.23;;
21140;SDS011;10728;53.284;10.314;2022-12-24T21:13:03;11.37;;;3.57;;
21140;SDS011;10728;53.284;10.314;2022-12-24T21:15:30;14.97;;;3.87;;
21140;SDS011;10728;53.284;10.314;2022-12-24T21:18:15;16.00;;;4.10;;
21140;SDS011;10728;53.284;10.314;2022-12-24T21:20:40;16.10;;;4.40;;
21140;SDS011;10728;53.284;10.314;2022-12-24T21:26:03;7.73;;;3.63;;
21140;SDS011;10728;53.284;10.314;2022-12-24T21:28:29;10.93;;;3.43;;
21140;SDS011;10728;53.284;10.314;2022-12-24T21:30:55;9.37;;;3.83;;
21140;SDS011;10728;53.284;10.314;2022-12-24T21:33:21;14.07;;;4.60;;
21140;SDS011;10728;53.284;10.314;2022-12-24T21:38:29;14.23;;;4.87;;
21140;SDS011;10728;53.284;10.314;2022-12-24T21:41:02;12.80;;;4.23;;
21140;SDS011;10728;53.284;10.314;2022-12-24T21:43:49;11.10;;;3.43;;
21140;SDS011;10728;53.284;10.314;2022-12-24T21:46:16;7.87;;;4.00;;
21140;SDS011;10728;53.284;10.314;2022-12-24T21:48:45;15.97;;;4.90;;
21140;SDS011;10728;53.284;10.314;2022-12-24T21:51:30;10.10;;;3.87;;
21140;SDS011;10728;53.284;10.314;2022-12-24T21:53:55;11.33;;;3.67;;
21140;SDS011;10728;53.284;10.314;2022-12-24T22:04:46;21.63;;;5.10;;
21140;SDS011;10728;53.284;10.314;2022-12-24T22:07:24;22.60;;;7.43;;
21140;SDS011;10728;53.284;10.314;2022-12-24T22:10:32;18.40;;;7.40;;
21140;SDS011;10728;53.284;10.314;2022-12-24T22:13:16;35.20;;;10.63;;
21140;SDS011;10728;53.284;10.314;2022-12-24T22:15:43;24.97;;;7.47;;
21140;SDS011;10728;53.284;10.314;2022-12-24T22:18:27;12.80;;;5.43;;
21140;SDS011;10728;53.284;10.314;2022-12-24T22:20:53;18.37;;;5.10;;
21140;SDS011;10728;53.284;10.314;2022-12-24T22:35:21;22.40;;;3.93;;
21140;SDS011;10728;53.284;10.314;2022-12-24T22:38:04;16.53;;;4.40;;
21140;SDS011;10728;53.284;10.314;2022-12-24T22:40:42;14.67;;;3.93;;
21140;SDS011;10728;53.284;10.314;2022-12-24T22:43:18;8.33;;;3.53;;
21140;SDS011;10728;53.284;10.314;2022-12-24T22:45:44;22.40;;;4.27;;
21140;SDS011;10728;53.284;10.314;2022-12-24T22:48:09;9.47;;;3.87;;
21140;SDS011;10728;53.284;10.314;2022-12-24T22:50:38;21.87;;;4.80;;
21140;SDS011;10728;53.284;10.314;2022-12-24T22:53:03;18.50;;;4.50;;
21140;SDS011;10728;53.284;10.314;2022-12-24T22:55:29;20.60;;;4.57;;
21140;SDS011;10728;53.284;10.314;2022-12-24T22:57:54;13.97;;;3.77;;
21140;SDS011;10728;53.284;10.314;2022-12-24T23:00:35;14.77;;;4.10;;
21140;SDS011;10728;53.284;10.314;2022-12-24T23:03:06;23.13;;;4.50;;
21140;SDS011;10728;53.284;10.314;2022-12-24T23:05:32;17.17;;;3.90;;
21140;SDS011;10728;53.284;10.314;2022-12-24T23:07:57;12.97;;;3.70;;
21140;SDS011;10728;53.284;10.314;2022-12-24T23:10:23;14.10;;;3.50;;
21140;SDS011;10728;53.284;10.314;2022-12-24T23:12:49;10.23;;;3.53;;
21140;SDS011;10728;53.284;10.314;2022-12-24T23:26:21;41.93;;;4.27;;
21140;SDS011;10728;53.284;10.314;2022-12-24T23:29:51;16.43;;;3.60;;
21140;SDS011;10728;53.284;10.314;2022-12-24T23:33:15;10.83;;;2.90;;
21140;SDS011;10728;53.284;10.314;2022-12-24T23:36:41;7.70;;;3.60;;
21140;SDS011;10728;53.284;10.314;2022-12-24T23:39:38;9.13;;;3.20;;
21140;SDS011;10728;53.284;10.314;2022-12-24T23:42:27;29.00;;;5.07;;
21140;SDS011;10728;53.284;10.314;2022-12-24T23:45:47;26.37;;;3.90;;
21140;SDS011;10728;53.284;10.314;2022-12-24T23:49:06;92.03;;;4.83;;
21140;SDS011;10728;53.284;10.314;2022-12-24T23:52:32;5.30;;;2.40;;
